createdAt,value
2018-01-04T00:00:54.261Z,7.60
2018-01-04T00:03:21.713Z,8.20
2018-01-04T00:05:49.939Z,6.73
2018-01-04T00:08:17.393Z,7.03
2018-01-04T00:10:44.832Z,7.13
2018-01-04T00:13:12.279Z,7.30
2018-01-04T00:15:40.485Z,7.03
2018-01-04T00:18:07.939Z,7.80
2018-01-04T00:20:36.159Z,7.50
2018-01-04T00:23:03.617Z,6.93
2018-01-04T00:25:31.064Z,6.90
2018-01-04T00:27:58.555Z,7.10
2018-01-04T00:30:26.011Z,6.90
2018-01-04T00:32:53.472Z,6.57
2018-01-04T00:35:20.929Z,6.47
2018-01-04T00:37:48.378Z,6.13
2018-01-04T00:40:15.836Z,6.63
2018-01-04T00:42:43.298Z,5.57
2018-01-04T00:45:10.765Z,6.13
2018-01-04T00:47:38.224Z,7.30
2018-01-04T00:50:05.665Z,7.10
2018-01-04T00:52:33.897Z,7.30
2018-01-04T00:55:01.346Z,7.03
2018-01-04T00:57:28.791Z,7.10
2018-01-04T00:59:56.255Z,7.00
2018-01-04T01:02:23.684Z,6.47
2018-01-04T01:04:51.907Z,7.90
2018-01-04T01:07:19.351Z,7.20
2018-01-04T01:09:46.843Z,6.73
2018-01-04T01:12:14.308Z,7.03
2018-01-04T01:14:41.773Z,7.03
2018-01-04T01:17:09.240Z,6.70
2018-01-04T01:19:36.704Z,6.63
2018-01-04T01:22:04.163Z,6.87
2018-01-04T01:24:31.620Z,7.43
2018-01-04T01:26:59.064Z,7.37
2018-01-04T01:29:27.294Z,6.53
2018-01-04T01:31:54.752Z,6.20
2018-01-04T01:34:22.209Z,6.67
2018-01-04T01:36:49.647Z,8.00
2018-01-04T01:39:17.088Z,7.07
2018-01-04T01:41:44.539Z,6.73
2018-01-04T01:44:11.974Z,7.33
2018-01-04T01:46:40.186Z,6.03
2018-01-04T01:49:15.453Z,7.00
2018-01-04T01:51:42.900Z,7.20
2018-01-04T01:54:10.357Z,7.77
2018-01-04T01:56:37.798Z,6.63
2018-01-04T01:59:05.254Z,8.10
2018-01-04T02:01:33.477Z,6.93
2018-01-04T02:04:00.957Z,7.20
2018-01-04T02:06:28.403Z,6.77
2018-01-04T02:08:56.616Z,8.03
2018-01-04T02:11:24.062Z,7.07
2018-01-04T02:13:51.512Z,6.97
2018-01-04T02:16:22.434Z,7.23
2018-01-04T02:19:01.721Z,6.80
2018-01-04T02:21:41.036Z,6.23
2018-01-04T02:24:20.443Z,6.77
2018-01-04T02:26:59.727Z,6.53
2018-01-04T02:29:39.157Z,6.77
2018-01-04T02:32:18.572Z,6.90
2018-01-04T02:34:57.871Z,7.47
2018-01-04T02:37:37.152Z,7.63
2018-01-04T02:40:26.296Z,6.50
2018-01-04T02:43:05.375Z,6.63
2018-01-04T02:45:53.568Z,8.07
2018-01-04T02:48:21.550Z,6.87
2018-01-04T02:50:48.997Z,6.43
2018-01-04T02:53:16.446Z,6.73
2018-01-04T02:55:43.897Z,7.07
2018-01-04T02:58:11.347Z,7.03
2018-01-04T03:00:38.792Z,8.50
2018-01-04T03:03:06.267Z,7.90
2018-01-04T03:05:33.717Z,8.23
2018-01-04T03:08:01.173Z,8.63
2018-01-04T03:10:29.371Z,6.77
2018-01-04T03:12:56.841Z,6.47
2018-01-04T03:15:24.307Z,6.93
2018-01-04T03:17:51.760Z,7.57
2018-01-04T03:20:19.207Z,7.43
2018-01-04T03:22:52.322Z,7.33
2018-01-04T03:25:25.475Z,6.40
2018-01-04T03:27:59.451Z,7.93
2018-01-04T03:30:32.517Z,6.77
2018-01-04T03:33:05.673Z,7.67
2018-01-04T03:35:39.720Z,7.33
2018-01-04T03:38:12.862Z,8.50
2018-01-04T03:40:46.077Z,8.23
2018-01-04T03:43:20.050Z,6.73
2018-01-04T03:45:53.327Z,8.33
2018-01-04T03:48:26.370Z,6.80
2018-01-04T03:51:00.430Z,7.17
2018-01-04T03:53:33.605Z,7.33
2018-01-04T03:56:06.712Z,6.80
2018-01-04T03:58:39.795Z,7.73
2018-01-04T04:01:27.153Z,6.97
2018-01-04T04:03:54.642Z,6.77
2018-01-04T04:06:28.523Z,6.53
2018-01-04T04:08:55.966Z,7.20
2018-01-04T04:11:23.437Z,6.93
2018-01-04T04:13:50.862Z,6.73
2018-01-04T04:16:18.324Z,7.53
2018-01-04T04:18:45.801Z,6.77
2018-01-04T04:21:13.259Z,7.07
2018-01-04T04:23:40.717Z,6.07
2018-01-04T04:26:08.163Z,6.47
2018-01-04T04:28:35.607Z,7.33
2018-01-04T04:31:03.823Z,8.10
2018-01-04T04:33:31.302Z,6.53
2018-01-04T04:35:58.754Z,6.80
2018-01-04T04:38:26.198Z,7.77
2018-01-04T04:40:53.643Z,7.33
2018-01-04T04:43:21.853Z,6.47
2018-01-04T04:45:49.313Z,6.73
2018-01-04T04:48:16.777Z,6.93
2018-01-04T04:50:44.234Z,6.13
2018-01-04T04:53:11.686Z,6.10
2018-01-04T04:55:39.137Z,6.47
2018-01-04T04:58:07.347Z,5.97
2018-01-04T05:00:34.790Z,6.27
2018-01-04T05:03:02.239Z,5.33
2018-01-04T05:05:30.467Z,5.63
2018-01-04T05:07:57.907Z,5.77
2018-01-04T05:10:25.362Z,6.17
2018-01-04T05:12:52.822Z,6.33
2018-01-04T05:15:21.051Z,6.40
2018-01-04T05:17:48.484Z,5.97
2018-01-04T05:20:15.946Z,5.40
2018-01-04T05:22:43.407Z,6.53
2018-01-04T05:25:10.858Z,6.83
2018-01-04T05:27:38.333Z,5.50
2018-01-04T05:30:05.776Z,5.73
2018-01-04T05:32:33.237Z,5.77
2018-01-04T05:35:00.679Z,6.37
2018-01-04T05:37:28.892Z,6.03
2018-01-04T05:39:56.356Z,6.30
2018-01-04T05:42:23.795Z,5.80
2018-01-04T05:44:52.019Z,7.43
2018-01-04T05:47:19.475Z,7.00
2018-01-04T05:49:46.936Z,5.63
2018-01-04T05:52:14.390Z,5.30
2018-01-04T05:54:41.833Z,5.90
2018-01-04T05:57:09.297Z,6.13
2018-01-04T05:59:37.510Z,7.97
2018-01-04T06:02:04.961Z,7.67
2018-01-04T06:04:32.392Z,6.70
2018-01-04T06:07:00.662Z,5.93
2018-01-04T06:09:28.081Z,8.20
2018-01-04T06:11:55.519Z,6.63
2018-01-04T06:14:22.971Z,6.73
2018-01-04T06:16:50.419Z,5.67
2018-01-04T06:19:18.643Z,6.07
2018-01-04T06:21:46.100Z,8.40
2018-01-04T06:24:13.544Z,7.03
2018-01-04T06:26:40.979Z,7.80
2018-01-04T06:29:09.189Z,6.93
2018-01-04T06:31:36.655Z,7.03
2018-01-04T06:34:04.109Z,6.60
2018-01-04T06:36:31.547Z,6.80
2018-01-04T06:38:59.768Z,6.83
2018-01-04T06:41:27.236Z,7.37
2018-01-04T06:43:54.681Z,6.00
2018-01-04T06:46:22.128Z,6.63
2018-01-04T06:48:50.342Z,6.40
2018-01-04T06:51:17.785Z,7.43
2018-01-04T06:53:45.248Z,7.17
2018-01-04T06:56:12.692Z,6.87
2018-01-04T06:58:40.893Z,6.37
2018-01-04T07:01:08.352Z,6.77
2018-01-04T07:03:35.817Z,7.20
2018-01-04T07:06:03.246Z,7.47
2018-01-04T07:08:31.472Z,6.73
2018-01-04T07:10:58.915Z,6.00
2018-01-04T07:13:26.363Z,6.67
2018-01-04T07:15:54.593Z,7.73
2018-01-04T07:18:22.024Z,6.60
2018-01-04T07:20:49.466Z,7.07
2018-01-04T07:23:17.702Z,5.83
2018-01-04T07:25:45.143Z,6.27
2018-01-04T07:28:12.605Z,7.87
2018-01-04T07:30:40.058Z,6.80
2018-01-04T07:33:07.518Z,5.40
2018-01-04T07:35:34.977Z,5.80
2018-01-04T07:38:02.439Z,6.87
2018-01-04T07:40:29.898Z,6.40
2018-01-04T07:42:57.336Z,6.43
2018-01-04T07:45:24.774Z,6.50
2018-01-04T07:47:52.230Z,6.43
2018-01-04T07:50:19.674Z,6.40
2018-01-04T07:52:47.120Z,5.30
2018-01-04T07:55:14.585Z,6.13
2018-01-04T07:57:42.021Z,5.87
2018-01-04T08:00:10.255Z,6.10
2018-01-04T08:02:37.715Z,5.87
2018-01-04T08:05:05.162Z,6.63
2018-01-04T08:07:32.610Z,4.93
2018-01-04T08:10:00.056Z,6.37
2018-01-04T08:12:28.266Z,6.73
2018-01-04T08:14:55.716Z,4.70
2018-01-04T08:17:23.151Z,6.20
2018-01-04T08:19:51.357Z,6.43
2018-01-04T08:22:18.795Z,5.83
2018-01-04T08:24:47.013Z,5.93
2018-01-04T08:27:14.462Z,5.37
2018-01-04T08:29:41.899Z,5.67
2018-01-04T08:32:10.120Z,5.67
2018-01-04T08:34:37.578Z,6.27
2018-01-04T08:37:05.047Z,6.33
2018-01-04T08:39:32.509Z,6.03
2018-01-04T08:41:59.974Z,5.27
2018-01-04T08:44:27.427Z,5.73
2018-01-04T08:46:54.887Z,5.57
2018-01-04T08:49:22.352Z,5.73
2018-01-04T08:51:49.804Z,6.67
2018-01-04T08:54:17.253Z,6.43
2018-01-04T08:56:45.490Z,6.00
2018-01-04T08:59:12.937Z,5.10
2018-01-04T09:01:40.403Z,5.00
2018-01-04T09:04:07.867Z,5.50
2018-01-04T09:06:35.302Z,5.53
2018-01-04T09:09:02.773Z,6.03
2018-01-04T09:11:30.224Z,5.00
2018-01-04T09:13:57.692Z,5.77
2018-01-04T09:16:25.152Z,5.63
2018-01-04T09:18:52.593Z,5.50
2018-01-04T09:21:20.809Z,4.90
2018-01-04T09:23:48.252Z,4.33
2018-01-04T09:26:15.729Z,5.37
2018-01-04T09:28:43.182Z,6.45
2018-01-04T09:31:10.637Z,5.43
2018-01-04T09:33:38.100Z,4.83
2018-01-04T09:36:05.548Z,5.17
2018-01-04T09:38:33.763Z,5.17
2018-01-04T09:41:01.229Z,6.63
2018-01-04T09:43:28.691Z,4.40
2018-01-04T09:45:56.140Z,4.83
2018-01-04T09:48:23.584Z,4.33
2018-01-04T09:50:51.804Z,3.83
2018-01-04T09:53:19.263Z,4.30
2018-01-04T09:55:46.708Z,4.77
2018-01-04T09:58:14.168Z,4.57
2018-01-04T10:00:41.635Z,5.33
2018-01-04T10:03:09.078Z,4.97
2018-01-04T10:05:36.525Z,4.33
2018-01-04T10:08:04.730Z,4.63
2018-01-04T10:10:32.180Z,4.00
2018-01-04T10:13:00.393Z,4.23
2018-01-04T10:15:27.854Z,4.73
2018-01-04T10:17:55.297Z,4.57
2018-01-04T10:20:22.731Z,4.40
2018-01-04T10:22:50.947Z,5.40
2018-01-04T10:25:18.386Z,5.10
2018-01-04T10:27:46.607Z,4.97
2018-01-04T10:30:14.058Z,5.23
2018-01-04T10:32:41.503Z,3.87
2018-01-04T10:35:08.960Z,4.80
2018-01-04T10:37:36.444Z,5.00
2018-01-04T10:40:03.901Z,4.50
2018-01-04T10:42:31.365Z,4.00
2018-01-04T10:44:58.805Z,5.63
2018-01-04T10:47:27.115Z,4.67
2018-01-04T10:49:54.558Z,4.97
2018-01-04T10:52:21.985Z,4.70
2018-01-04T10:54:49.440Z,5.57
2018-01-04T10:57:16.886Z,5.07
2018-01-04T10:59:44.329Z,5.30
2018-01-04T11:02:11.767Z,4.93
2018-01-04T11:04:39.211Z,4.80
2018-01-04T11:07:07.411Z,4.40
2018-01-04T11:09:34.854Z,5.00
2018-01-04T11:12:03.064Z,4.70
2018-01-04T11:14:30.502Z,4.40
2018-01-04T11:16:58.729Z,5.67
2018-01-04T11:19:26.171Z,5.40
2018-01-04T11:21:53.627Z,4.90
2018-01-04T11:24:21.078Z,4.47
2018-01-04T11:26:49.306Z,4.13
2018-01-04T11:29:16.765Z,5.43
2018-01-04T11:31:44.976Z,4.40
2018-01-04T11:34:12.409Z,4.30
2018-01-04T11:36:39.872Z,4.77
2018-01-04T11:39:08.092Z,5.10
2018-01-04T11:41:35.551Z,4.33
2018-01-04T11:44:03.761Z,4.43
2018-01-04T11:46:31.239Z,3.93
2018-01-04T11:48:58.701Z,5.17
2018-01-04T11:51:28.285Z,4.30
2018-01-04T11:53:55.771Z,4.10
2018-01-04T11:56:23.224Z,4.03
2018-01-04T11:58:50.674Z,3.53
2018-01-04T12:01:18.163Z,3.90
2018-01-04T12:03:45.610Z,4.03
2018-01-04T12:06:13.064Z,3.70
2018-01-04T12:08:40.526Z,4.03
2018-01-04T12:11:07.973Z,4.17
2018-01-04T12:13:36.188Z,4.07
2018-01-04T12:16:03.655Z,3.73
2018-01-04T12:18:31.095Z,3.60
2018-01-04T12:20:58.528Z,3.27
2018-01-04T12:23:25.984Z,4.10
2018-01-04T12:25:53.425Z,3.57
2018-01-04T12:28:20.906Z,3.33
2018-01-04T12:30:48.344Z,3.97
2018-01-04T12:33:15.882Z,2.70
2018-01-04T12:35:43.305Z,3.40
2018-01-04T12:38:10.726Z,3.80
2018-01-04T12:40:38.165Z,2.90
2018-01-04T12:43:05.608Z,2.90
2018-01-04T12:45:33.824Z,3.40
2018-01-04T12:48:01.261Z,3.20
2018-01-04T12:50:28.719Z,2.87
2018-01-04T12:52:56.175Z,3.00
2018-01-04T12:55:24.406Z,3.30
2018-01-04T12:57:51.865Z,2.70
2018-01-04T13:00:19.301Z,3.17
2018-01-04T13:02:46.842Z,2.97
2018-01-04T13:05:15.046Z,3.03
2018-01-04T13:07:42.507Z,4.00
2018-01-04T13:10:10.706Z,3.33
2018-01-04T13:12:38.162Z,3.30
2018-01-04T13:15:05.612Z,3.87
2018-01-04T13:17:33.075Z,3.87
2018-01-04T13:20:00.524Z,3.73
2018-01-04T13:22:28.739Z,3.57
2018-01-04T13:24:56.190Z,4.00
2018-01-04T13:27:23.626Z,3.13
2018-01-04T13:29:51.079Z,4.17
2018-01-04T13:32:19.311Z,4.50
2018-01-04T13:34:46.779Z,4.03
2018-01-04T13:37:14.432Z,5.17
2018-01-04T13:39:41.864Z,5.23
2018-01-04T13:42:10.089Z,6.03
2018-01-04T13:44:37.522Z,6.87
2018-01-04T13:47:04.987Z,7.37
2018-01-04T13:49:32.430Z,6.43
2018-01-04T13:52:00.641Z,6.70
2018-01-04T13:54:28.096Z,7.10
2018-01-04T13:56:55.529Z,6.17
2018-01-04T13:59:23.833Z,6.57
2018-01-04T14:01:51.570Z,5.90
2018-01-04T14:04:19.009Z,6.00
2018-01-04T14:06:46.442Z,6.40
2018-01-04T14:09:13.947Z,5.87
2018-01-04T14:11:41.401Z,6.17
2018-01-04T14:14:08.886Z,5.77
2018-01-04T14:16:37.122Z,5.60
2018-01-04T14:19:04.569Z,5.73
2018-01-04T14:21:32.019Z,5.87
2018-01-04T14:23:59.460Z,5.87
2018-01-04T14:26:27.733Z,5.03
2018-01-04T14:28:55.167Z,4.43
2018-01-04T14:31:22.608Z,4.63
2018-01-04T14:33:50.077Z,5.50
2018-01-04T14:36:18.275Z,4.63
2018-01-04T14:38:45.718Z,4.77
2018-01-04T14:41:13.173Z,4.90
2018-01-04T14:43:40.629Z,4.67
2018-01-04T14:46:08.127Z,4.10
2018-01-04T14:48:35.954Z,4.10
2018-01-04T14:51:03.415Z,3.37
2018-01-04T14:53:30.889Z,2.87
2018-01-04T14:55:58.367Z,3.23
2018-01-04T14:58:25.833Z,2.70
2018-01-04T15:00:53.278Z,2.30
2018-01-04T15:03:20.741Z,2.63
2018-01-04T15:05:48.195Z,2.90
2018-01-04T15:08:15.636Z,3.30
2018-01-04T15:10:43.866Z,3.13
2018-01-04T15:13:11.325Z,3.13
2018-01-04T15:15:38.777Z,4.07
2018-01-04T15:18:06.227Z,5.80
2018-01-04T15:20:33.662Z,4.83
2018-01-04T15:23:01.904Z,4.70
2018-01-04T15:25:30.103Z,5.17
2018-01-04T15:27:57.546Z,4.57
2018-01-04T15:30:25.016Z,5.23
2018-01-04T15:32:52.468Z,6.37
2018-01-04T15:35:19.914Z,5.20
2018-01-04T15:37:47.346Z,5.67
2018-01-04T15:40:14.825Z,6.30
2018-01-04T15:42:42.272Z,6.17
2018-01-04T15:45:09.719Z,6.23
2018-01-04T15:47:37.978Z,6.00
2018-01-04T15:50:06.190Z,6.80
2018-01-04T15:52:34.398Z,7.53
2018-01-04T15:55:01.892Z,6.20
2018-01-04T15:57:29.335Z,8.07
2018-01-04T15:59:56.795Z,8.20
2018-01-04T16:02:24.252Z,7.63
2018-01-04T16:04:51.698Z,8.57
2018-01-04T16:07:19.158Z,8.73
2018-01-04T16:09:46.631Z,8.20
2018-01-04T16:12:14.064Z,8.00
2018-01-04T16:14:42.295Z,8.33
2018-01-04T16:17:09.750Z,9.93
2018-01-04T16:19:37.203Z,10.40
2018-01-04T16:22:04.659Z,7.77
2018-01-04T16:24:32.147Z,10.27
2018-01-04T16:26:59.626Z,9.07
2018-01-04T16:29:27.055Z,9.43
2018-01-04T16:31:54.511Z,9.03
2018-01-04T16:34:21.975Z,10.10
2018-01-04T16:36:49.440Z,7.67
2018-01-04T16:39:16.895Z,9.53
2018-01-04T16:41:44.360Z,10.63
2018-01-04T16:44:11.815Z,8.40
2018-01-04T16:46:39.251Z,10.77
2018-01-04T16:49:07.474Z,10.57
2018-01-04T16:51:34.926Z,9.63
2018-01-04T16:54:02.398Z,9.63
2018-01-04T16:56:29.823Z,10.07
2018-01-04T16:58:58.033Z,9.53
2018-01-04T17:01:25.496Z,10.20
2018-01-04T17:03:52.956Z,10.37
2018-01-04T17:06:20.422Z,12.93
2018-01-04T17:08:47.957Z,10.60
2018-01-04T17:11:15.323Z,10.80
2018-01-04T17:13:42.794Z,11.47
2018-01-04T17:16:10.257Z,10.80
2018-01-04T17:18:37.700Z,11.97
2018-01-04T17:21:05.939Z,10.43
2018-01-04T17:23:33.385Z,10.37
2018-01-04T17:26:00.830Z,10.83
2018-01-04T17:28:28.299Z,9.90
2018-01-04T17:30:55.739Z,9.17
2018-01-04T17:33:23.969Z,9.30
2018-01-04T17:35:51.427Z,10.17
2018-01-04T17:38:18.854Z,11.03
2018-01-04T17:40:46.334Z,11.03
2018-01-04T17:43:13.816Z,9.13
2018-01-04T17:45:41.257Z,9.57
2018-01-04T17:48:08.694Z,9.13
2018-01-04T17:50:36.911Z,9.63
2018-01-04T17:53:04.360Z,10.43
2018-01-04T17:55:31.812Z,9.37
2018-01-04T17:57:59.258Z,8.17
2018-01-04T18:00:27.463Z,7.53
2018-01-04T18:02:54.903Z,7.70
2018-01-04T18:05:23.118Z,7.13
2018-01-04T18:07:50.580Z,7.00
2018-01-04T18:10:18.024Z,6.77
2018-01-04T18:12:45.479Z,7.10
2018-01-04T18:15:12.917Z,5.57
2018-01-04T18:17:41.160Z,5.83
2018-01-04T18:20:08.586Z,5.80
2018-01-04T18:22:36.033Z,6.07
2018-01-04T18:25:04.260Z,6.07
2018-01-04T18:27:31.721Z,5.73
2018-01-04T18:29:59.169Z,5.40
2018-01-04T18:32:26.634Z,5.17
2018-01-04T18:34:54.076Z,4.93
2018-01-04T18:37:21.497Z,5.00
2018-01-04T18:39:48.943Z,5.83
2018-01-04T18:42:16.374Z,4.60
2018-01-04T18:44:43.826Z,4.70
2018-01-04T18:47:11.270Z,4.60
2018-01-04T18:49:39.486Z,5.03
2018-01-04T18:52:06.939Z,4.67
2018-01-04T18:54:34.424Z,4.10
2018-01-04T18:57:02.596Z,4.63
2018-01-04T18:59:30.039Z,3.97
2018-01-04T19:01:57.502Z,4.77
2018-01-04T19:04:24.951Z,4.17
2018-01-04T19:06:53.164Z,3.93
2018-01-04T19:09:20.610Z,3.30
2018-01-04T19:11:48.041Z,4.83
2018-01-04T19:14:16.262Z,3.80
2018-01-04T19:16:43.713Z,4.17
2018-01-04T19:19:11.197Z,4.17
2018-01-04T19:21:38.643Z,4.60
2018-01-04T19:24:06.077Z,4.30
2018-01-04T19:26:34.300Z,4.40
2018-01-04T19:29:01.747Z,4.27
2018-01-04T19:31:29.193Z,4.27
2018-01-04T19:33:57.399Z,3.87
2018-01-04T19:36:24.847Z,3.80
2018-01-04T19:38:52.315Z,3.33
2018-01-04T19:41:19.767Z,3.60
2018-01-04T19:43:47.202Z,3.50
2018-01-04T19:46:14.633Z,3.87
2018-01-04T19:48:42.095Z,3.27
2018-01-04T19:51:09.536Z,3.37
2018-01-04T19:53:36.979Z,3.57
2018-01-04T19:56:04.441Z,3.40
2018-01-04T19:58:31.881Z,4.40
2018-01-04T20:01:00.087Z,3.40
2018-01-04T20:03:27.540Z,3.07
2018-01-04T20:05:55.738Z,3.50
2018-01-04T20:08:23.203Z,3.30
2018-01-04T20:10:50.660Z,3.13
2018-01-04T20:13:18.133Z,3.73
2018-01-04T20:15:45.584Z,3.77
2018-01-04T20:18:13.031Z,3.10
2018-01-04T20:20:41.248Z,3.50
2018-01-04T20:23:08.698Z,4.43
2018-01-04T20:25:36.151Z,3.00
2018-01-04T20:30:43.911Z,3.13
2018-01-04T20:33:11.354Z,3.50
2018-01-04T20:35:38.786Z,2.53
2018-01-04T20:38:06.235Z,2.73
2018-01-04T20:40:34.439Z,2.83
2018-01-04T20:43:01.894Z,3.20
2018-01-04T20:45:29.322Z,3.20
2018-01-04T20:47:56.765Z,3.20
2018-01-04T20:50:24.211Z,3.40
2018-01-04T20:52:51.637Z,3.17
2018-01-04T20:55:19.093Z,2.43
2018-01-04T20:57:47.287Z,2.73
2018-01-04T21:00:14.718Z,2.97
2018-01-04T21:02:42.923Z,2.83
2018-01-04T21:05:10.368Z,2.50
2018-01-04T21:07:38.567Z,2.70
2018-01-04T21:10:05.990Z,2.37
2018-01-04T21:12:33.418Z,2.70
2018-01-04T21:15:00.864Z,2.63
2018-01-04T21:17:28.307Z,2.70
2018-01-04T21:19:56.489Z,2.50
2018-01-04T21:22:23.936Z,2.87
2018-01-04T21:24:52.151Z,3.13
2018-01-04T21:27:19.576Z,3.30
2018-01-04T21:29:47.782Z,2.77
2018-01-04T21:32:15.231Z,2.50
2018-01-04T21:34:43.431Z,2.93
2018-01-04T21:37:10.853Z,3.13
2018-01-04T21:39:39.050Z,2.80
2018-01-04T21:42:06.498Z,2.90
2018-01-04T21:44:34.685Z,2.47
2018-01-04T21:47:02.886Z,2.57
2018-01-04T21:49:30.315Z,2.73
2018-01-04T21:51:57.771Z,2.30
2018-01-04T21:54:25.211Z,2.57
2018-01-04T22:02:51.965Z,2.90
2018-01-04T22:05:19.400Z,2.80
2018-01-04T22:07:47.592Z,2.37
2018-01-04T22:10:15.786Z,2.93
2018-01-04T22:12:43.242Z,2.63
2018-01-04T22:15:10.673Z,2.30
2018-01-04T22:17:38.888Z,3.00
2018-01-04T22:20:06.335Z,2.77
2018-01-04T22:22:34.529Z,2.73
2018-01-04T22:25:01.957Z,2.80
2018-01-04T22:27:29.394Z,2.67
2018-01-04T22:29:56.825Z,2.90
2018-01-04T22:32:24.271Z,2.43
2018-01-04T22:34:51.718Z,2.53
2018-01-04T22:37:19.919Z,2.33
2018-01-04T22:39:47.362Z,2.70
2018-01-04T22:42:15.588Z,3.00
2018-01-04T22:44:43.028Z,2.47
2018-01-04T22:47:10.465Z,2.77
2018-01-04T22:49:38.670Z,2.87
2018-01-04T22:52:06.115Z,2.83
2018-01-04T22:54:33.555Z,2.67
2018-01-04T22:57:00.973Z,2.50
2018-01-04T22:59:28.401Z,2.17
2018-01-04T23:01:55.933Z,2.27
2018-01-04T23:04:23.363Z,2.30
2018-01-04T23:06:50.794Z,2.53
2018-01-04T23:09:18.226Z,2.20
2018-01-04T23:11:45.658Z,2.60
2018-01-04T23:14:13.091Z,2.57
2018-01-04T23:16:40.522Z,2.80
2018-01-04T23:19:08.720Z,2.20
2018-01-04T23:21:36.158Z,3.00
2018-01-04T23:24:03.599Z,3.13
2018-01-04T23:26:31.030Z,2.57
2018-01-04T23:28:58.479Z,2.17
2018-01-04T23:31:25.914Z,2.40
2018-01-04T23:33:54.122Z,2.70
2018-01-04T23:36:21.551Z,2.70
2018-01-04T23:38:49.747Z,2.73
2018-01-04T23:41:17.960Z,2.70
2018-01-04T23:43:45.405Z,2.50
2018-01-04T23:46:12.843Z,3.10
2018-01-04T23:48:41.048Z,3.40
2018-01-04T23:51:08.491Z,2.70
2018-01-04T23:53:36.694Z,2.80
2018-01-04T23:56:04.153Z,3.00
2018-01-04T23:58:31.593Z,2.70
